Map

Track Data

SID SEASON NUMBER BASIN SUBBASIN NAME ISO_TIME NATURE LAT LON WMO_WIND WMO_PRES WMO_AGENCY TRACK_TYPE DIST2LAND LANDFALL IFLAG USA_AGENCY USA_ATCF_ID USA_LAT USA_LON USA_RECORD USA_STATUS USA_WIND USA_PRES USA_SSHS USA_R34_NE USA_R34_SE USA_R34_SW USA_R34_NW USA_R50_NE USA_R50_SE USA_R50_SW USA_R50_NW USA_R64_NE USA_R64_SE USA_R64_SW USA_R64_NW USA_POCI USA_ROCI USA_RMW USA_EYE TOKYO_LAT TOKYO_LON TOKYO_GRADE TOKYO_WIND TOKYO_PRES TOKYO_R50_DIR TOKYO_R50_LONG TOKYO_R50_SHORT TOKYO_R30_DIR TOKYO_R30_LONG TOKYO_R30_SHORT TOKYO_LAND CMA_LAT CMA_LON CMA_CAT CMA_WIND CMA_PRES HKO_LAT HKO_LON HKO_CAT HKO_WIND HKO_PRES NEWDELHI_LAT NEWDELHI_LON NEWDELHI_GRADE NEWDELHI_WIND NEWDELHI_PRES NEWDELHI_CI NEWDELHI_DP NEWDELHI_POCI REUNION_LAT REUNION_LON REUNION_TYPE REUNION_WIND REUNION_PRES REUNION_TNUM REUNION_CI REUNION_RMW REUNION_R34_NE REUNION_R34_SE REUNION_R34_SW REUNION_R34_NW REUNION_R50_NE REUNION_R50_SE REUNION_R50_SW REUNION_R50_NW REUNION_R64_NE REUNION_R64_SE REUNION_R64_SW REUNION_R64_NW BOM_LAT BOM_LON BOM_TYPE BOM_WIND BOM_PRES BOM_TNUM BOM_CI BOM_RMW BOM_R34_NE BOM_R34_SE BOM_R34_SW BOM_R34_NW BOM_R50_NE BOM_R50_SE BOM_R50_SW BOM_R50_NW BOM_R64_NE BOM_R64_SE BOM_R64_SW BOM_R64_NW BOM_ROCI BOM_POCI BOM_EYE BOM_POS_METHOD BOM_PRES_METHOD NADI_LAT NADI_LON NADI_CAT NADI_WIND NADI_PRES WELLINGTON_LAT WELLINGTON_LON WELLINGTON_WIND WELLINGTON_PRES DS824_LAT DS824_LON DS824_STAGE DS824_WIND DS824_PRES TD9636_LAT TD9636_LON TD9636_STAGE TD9636_WIND TD9636_PRES TD9635_LAT TD9635_LON TD9635_WIND TD9635_PRES TD9635_ROCI NEUMANN_LAT NEUMANN_LON NEUMANN_CLASS NEUMANN_WIND NEUMANN_PRES MLC_LAT MLC_LON MLC_CLASS MLC_WIND MLC_PRES USA_GUST BOM_GUST BOM_GUST_PER REUNION_GUST REUNION_GUST_PER USA_SEAHGT USA_SEARAD_NE USA_SEARAD_SE USA_SEARAD_SW USA_SEARAD_NW STORM_SPEED STORM_DIR
1877213N23288 1877 17 NA NA NOT_NAMED 1877-08-01 00:00:00 TS 23.1000 -72.1000 40 hurdat_atl main 231 227 O_____________ hurdat_atl AL011877 23.1000 -72.1000 TS 40 0 14 291
1877213N23288 1877 17 NA NA NOT_NAMED 1877-08-01 03:00:00 TS 23.3482 -72.8201 main 235 235 P_____________ AL011877 23.3482 -72.8201 TS 40 0 14 295
1877213N23288 1877 17 NA NA NOT_NAMED 1877-08-01 06:00:00 TS 23.7000 -73.5000 40 hurdat_atl main 281 281 O_____________ hurdat_atl AL011877 23.7000 -73.5000 TS 40 0 15 306
1877213N23288 1877 17 NA NA NOT_NAMED 1877-08-01 09:00:00 TS 24.2073 -74.1020 main 347 314 P_____________ AL011877 24.2073 -74.1020 TS 45 0 14 315
1877213N23288 1877 17 NA NA NOT_NAMED 1877-08-01 12:00:00 TS 24.7000 -74.6000 50 hurdat_atl main 314 276 O_____________ hurdat_atl AL011877 24.7000 -74.6000 TS 50 0 11 313
1877213N23288 1877 17 NA NA NOT_NAMED 1877-08-01 15:00:00 TS 24.9572 -74.9884 main 278 254 P_____________ AL011877 24.9572 -74.9884 TS 50 0 8 308
1877213N23288 1877 17 NA NA NOT_NAMED 1877-08-01 18:00:00 TS 25.2000 -75.3000 50 hurdat_atl main 254 238 O_____________ hurdat_atl AL011877 25.2000 -75.3000 TS 50 0 9 319
1877213N23288 1877 17 NA NA NOT_NAMED 1877-08-01 21:00:00 TS 25.6124 -75.6076 main 243 233 P_____________ AL011877 25.6124 -75.6076 TS 55 0 11 329
1877213N23288 1877 17 NA NA NOT_NAMED 1877-08-02 00:00:00 TS 26.1000 -75.9000 60 hurdat_atl main 238 232 O_____________ hurdat_atl AL011877 26.1000 -75.9000 TS 60 0 11 331
1877213N23288 1877 17 NA NA NOT_NAMED 1877-08-02 03:00:00 TS 26.6000 -76.2076 main 245 245 P_____________ AL011877 26.6000 -76.2076 TS 60 0 11 332
1877213N23288 1877 17 NA NA NOT_NAMED 1877-08-02 06:00:00 TS 27.1000 -76.5000 60 hurdat_atl main 268 268 O_____________ hurdat_atl AL011877 27.1000 -76.5000 TS 60 0 11 332
1877213N23288 1877 17 NA NA NOT_NAMED 1877-08-02 09:00:00 TS 27.5650 -76.7875 main 303 303 P_____________ AL011877 27.5650 -76.7875 TS 60 0 10 334
1877213N23288 1877 17 NA NA NOT_NAMED 1877-08-02 12:00:00 TS 28.0000 -77.0000 60 hurdat_atl main 324 324 O_____________ hurdat_atl AL011877 28.0000 -77.0000 TS 60 0 9 342
1877213N23288 1877 17 NA NA NOT_NAMED 1877-08-02 15:00:00 TS 28.3924 -77.0952 main 332 331 P_____________ AL011877 28.3924 -77.0952 TS 60 0 8 354
1877213N23288 1877 17 NA NA NOT_NAMED 1877-08-02 18:00:00 TS 28.8000 -77.1000 60 hurdat_atl main 333 333 O_____________ hurdat_atl AL011877 28.8000 -77.1000 TS 60 0 9 0
1877213N23288 1877 17 NA NA NOT_NAMED 1877-08-02 21:00:00 TS 29.2924 -77.0873 main 342 342 P_____________ AL011877 29.2924 -77.0873 TS 60 0 10 5
1877213N23288 1877 17 NA NA NOT_NAMED 1877-08-03 00:00:00 TS 29.8000 -77.0000 60 hurdat_atl main 369 369 O_____________ hurdat_atl AL011877 29.8000 -77.0000 TS 60 0 10 14
1877213N23288 1877 17 NA NA NOT_NAMED 1877-08-03 03:00:00 TS 30.2651 -76.8152 main 388 368 P_____________ AL011877 30.2651 -76.8152 TS 60 0 10 21
1877213N23288 1877 17 NA NA NOT_NAMED 1877-08-03 06:00:00 TS 30.7000 -76.6000 60 hurdat_atl main 368 352 O_____________ hurdat_atl AL011877 30.7000 -76.6000 TS 60 0 8 20
1877213N23288 1877 17 NA NA NOT_NAMED 1877-08-03 09:00:00 TS 31.0322 -76.4931 main 352 311 P_____________ AL011877 31.0322 -76.4931 TS 60 0 8 18
1877213N23288 1877 17 NA NA NOT_NAMED 1877-08-03 12:00:00 TS 31.5000 -76.3000 60 hurdat_atl main 311 265 O_____________ hurdat_atl AL011877 31.5000 -76.3000 TS 60 0 14 22
1877213N23288 1877 17 NA NA NOT_NAMED 1877-08-03 15:00:00 TS 32.2946 -75.9036 main 264 195 P_____________ AL011877 32.2946 -75.9036 TS 60 0 20 25
1877213N23288 1877 17 NA NA NOT_NAMED 1877-08-03 18:00:00 TS 33.3000 -75.3000 60 hurdat_atl main 191 162 O_____________ hurdat_atl AL011877 33.3000 -75.3000 TS 60 0 24 29
1877213N23288 1877 17 NA NA NOT_NAMED 1877-08-03 21:00:00 TS 34.3922 -74.5324 main 172 154 P_____________ AL011877 34.3922 -74.5324 TS 55 0 26 33
1877213N23288 1877 17 NA NA NOT_NAMED 1877-08-04 00:00:00 TS 35.5000 -73.6000 50 hurdat_atl main 174 174 O_____________ hurdat_atl AL011877 35.5000 -73.6000 TS 50 0 26 38
1877213N23288 1877 17 NA NA NOT_NAMED 1877-08-04 03:00:00 TS 36.4575 -72.5699 main 271 271 P_____________ AL011877 36.4575 -72.5699 TS 50 0 25 42
1877213N23288 1877 17 NA NA NOT_NAMED 1877-08-04 06:00:00 TS 37.4000 -71.5000 50 hurdat_atl main 330 326 O_____________ hurdat_atl AL011877 37.4000 -71.5000 TS 50 0 25 41
1877213N23288 1877 17 NA NA NOT_NAMED 1877-08-04 09:00:00 TS 38.3666 -70.4869 main 321 251 P_____________ AL011877 38.3666 -70.4869 TS 50 0 26 37
1877213N23288 1877 17 NA NA NOT_NAMED 1877-08-04 12:00:00 TS 39.5000 -69.5000 50 hurdat_atl main 244 153 O_____________ hurdat_atl AL011877 39.5000 -69.5000 TS 50 0 30 31
1877213N23288 1877 17 NA NA NOT_NAMED 1877-08-04 15:00:00 TS 40.9320 -68.4914 main 153 147 P_____________ AL011877 40.9320 -68.4914 TS 50 0 34 27
1877213N23288 1877 17 NA NA NOT_NAMED 1877-08-04 18:00:00 TS 42.5000 -67.5000 50 hurdat_atl main 175 31 O_____________ hurdat_atl AL011877 42.5000 -67.5000 TS 50 0 34 25
1877213N23288 1877 17 NA NA NOT_NAMED 1877-08-04 21:00:00 TS 43.9995 -66.5165 main 23 0 P_____________ AL011877 43.9995 -66.5165 TS 50 0 33 24
1877213N23288 1877 17 NA NA NOT_NAMED 1877-08-05 00:00:00 TS 45.5000 -65.6000 50 hurdat_atl main 0 0 O_____________ hurdat_atl AL011877 45.5000 -65.6000 TS 50 0 32 22
1877213N23288 1877 17 NA NA NOT_NAMED 1877-08-05 03:00:00 TS 47.0007 -64.7803 main 7 7 P_____________ AL011877 47.0007 -64.7803 TS 45 0 32 20
1877213N23288 1877 17 NA NA NOT_NAMED 1877-08-05 06:00:00 TS 48.5000 -64.0000 40 hurdat_atl main 14 O_____________ hurdat_atl AL011877 48.5000 -64.0000 TS 40 0 32 19

About IBTrACS Database

This database is a web-friendly format of International Best Track Archive for Climate Stewardship (IBTrACS), a global best track data archive curated by NOAA dating back to 1842.

Updated: 2021-10-08